sensor_id;sensor_type;location;lat;lon;timestamp;P1;durP1;ratioP1;P2;durP2;ratioP2
37284;SDS011;23172;53.550;9.964;2022-11-15T00:02:45;26.53;;;23.80;;
37284;SDS011;23172;53.550;9.964;2022-11-15T00:07:47;25.97;;;23.27;;
37284;SDS011;23172;53.550;9.964;2022-11-15T00:12:50;26.40;;;23.60;;
37284;SDS011;23172;53.550;9.964;2022-11-15T00:17:52;26.70;;;23.87;;
37284;SDS011;23172;53.550;9.964;2022-11-15T00:22:54;27.05;;;24.00;;
37284;SDS011;23172;53.550;9.964;2022-11-15T00:27:57;30.38;;;26.15;;
37284;SDS011;23172;53.550;9.964;2022-11-15T00:33:01;25.77;;;23.07;;
37284;SDS011;23172;53.550;9.964;2022-11-15T00:38:04;27.07;;;24.17;;
37284;SDS011;23172;53.550;9.964;2022-11-15T00:43:07;27.33;;;24.42;;
37284;SDS011;23172;53.550;9.964;2022-11-15T00:48:09;27.23;;;24.43;;
37284;SDS011;23172;53.550;9.964;2022-11-15T00:53:11;26.88;;;24.08;;
37284;SDS011;23172;53.550;9.964;2022-11-15T00:58:14;27.15;;;24.25;;
37284;SDS011;23172;53.550;9.964;2022-11-15T01:03:16;27.40;;;24.25;;
37284;SDS011;23172;53.550;9.964;2022-11-15T01:08:18;26.98;;;24.17;;
37284;SDS011;23172;53.550;9.964;2022-11-15T01:13:21;26.47;;;23.73;;
37284;SDS011;23172;53.550;9.964;2022-11-15T01:18:23;27.08;;;24.17;;
37284;SDS011;23172;53.550;9.964;2022-11-15T01:23:25;26.45;;;23.55;;
37284;SDS011;23172;53.550;9.964;2022-11-15T01:28:30;26.07;;;23.27;;
37284;SDS011;23172;53.550;9.964;2022-11-15T01:33:33;25.07;;;22.47;;
37284;SDS011;23172;53.550;9.964;2022-11-15T01:38:36;25.70;;;23.00;;
37284;SDS011;23172;53.550;9.964;2022-11-15T01:43:40;25.33;;;22.63;;
37284;SDS011;23172;53.550;9.964;2022-11-15T01:48:41;26.05;;;23.33;;
37284;SDS011;23172;53.550;9.964;2022-11-15T01:53:45;24.70;;;22.20;;
37284;SDS011;23172;53.550;9.964;2022-11-15T01:58:51;24.90;;;22.40;;
37284;SDS011;23172;53.550;9.964;2022-11-15T02:03:57;26.48;;;23.38;;
37284;SDS011;23172;53.550;9.964;2022-11-15T02:09:02;23.02;;;20.63;;
37284;SDS011;23172;53.550;9.964;2022-11-15T02:14:05;25.35;;;22.65;;
37284;SDS011;23172;53.550;9.964;2022-11-15T02:19:10;24.15;;;21.75;;
37284;SDS011;23172;53.550;9.964;2022-11-15T02:24:27;22.83;;;20.52;;
37284;SDS011;23172;53.550;9.964;2022-11-15T02:30:02;25.10;;;22.50;;
37284;SDS011;23172;53.550;9.964;2022-11-15T02:35:19;24.03;;;21.57;;
37284;SDS011;23172;53.550;9.964;2022-11-15T02:40:28;24.43;;;21.93;;
37284;SDS011;23172;53.550;9.964;2022-11-15T02:45:41;25.10;;;22.50;;
37284;SDS011;23172;53.550;9.964;2022-11-15T02:50:49;23.40;;;20.93;;
37284;SDS011;23172;53.550;9.964;2022-11-15T02:55:51;22.98;;;20.58;;
37284;SDS011;23172;53.550;9.964;2022-11-15T03:00:58;23.00;;;20.70;;
37284;SDS011;23172;53.550;9.964;2022-11-15T03:06:08;24.80;;;22.17;;
37284;SDS011;23172;53.550;9.964;2022-11-15T03:11:16;22.60;;;20.23;;
37284;SDS011;23172;53.550;9.964;2022-11-15T03:16:24;23.77;;;21.27;;
37284;SDS011;23172;53.550;9.964;2022-11-15T03:21:30;23.38;;;20.88;;
37284;SDS011;23172;53.550;9.964;2022-11-15T03:26:35;24.93;;;22.23;;
37284;SDS011;23172;53.550;9.964;2022-11-15T03:31:41;23.73;;;21.00;;
37284;SDS011;23172;53.550;9.964;2022-11-15T03:36:49;22.77;;;20.35;;
37284;SDS011;23172;53.550;9.964;2022-11-15T03:41:56;22.15;;;19.90;;
37284;SDS011;23172;53.550;9.964;2022-11-15T03:47:07;21.13;;;18.90;;
37284;SDS011;23172;53.550;9.964;2022-11-15T03:52:14;20.92;;;18.70;;
37284;SDS011;23172;53.550;9.964;2022-11-15T03:57:19;20.70;;;18.50;;
37284;SDS011;23172;53.550;9.964;2022-11-15T04:02:22;22.27;;;19.90;;
37284;SDS011;23172;53.550;9.964;2022-11-15T04:07:24;21.17;;;19.07;;
37284;SDS011;23172;53.550;9.964;2022-11-15T04:12:26;21.60;;;19.30;;
37284;SDS011;23172;53.550;9.964;2022-11-15T04:17:33;19.17;;;17.27;;
37284;SDS011;23172;53.550;9.964;2022-11-15T04:22:35;18.17;;;16.37;;
37284;SDS011;23172;53.550;9.964;2022-11-15T04:27:59;19.85;;;17.05;;
37284;SDS011;23172;53.550;9.964;2022-11-15T04:33:02;18.93;;;17.07;;
37284;SDS011;23172;53.550;9.964;2022-11-15T04:38:05;18.07;;;16.17;;
37284;SDS011;23172;53.550;9.964;2022-11-15T04:43:08;19.50;;;17.50;;
37284;SDS011;23172;53.550;9.964;2022-11-15T04:48:14;19.05;;;17.15;;
37284;SDS011;23172;53.550;9.964;2022-11-15T04:53:16;17.92;;;16.02;;
37284;SDS011;23172;53.550;9.964;2022-11-15T04:58:18;18.55;;;16.75;;
37284;SDS011;23172;53.550;9.964;2022-11-15T05:03:21;18.93;;;16.93;;
37284;SDS011;23172;53.550;9.964;2022-11-15T05:08:41;19.25;;;17.27;;
37284;SDS011;23172;53.550;9.964;2022-11-15T05:13:42;20.85;;;18.67;;
37284;SDS011;23172;53.550;9.964;2022-11-15T05:18:46;20.30;;;18.20;;
37284;SDS011;23172;53.550;9.964;2022-11-15T05:23:48;21.67;;;19.48;;
37284;SDS011;23172;53.550;9.964;2022-11-15T05:28:51;22.07;;;18.67;;
37284;SDS011;23172;53.550;9.964;2022-11-15T05:33:55;20.77;;;18.05;;
37284;SDS011;23172;53.550;9.964;2022-11-15T05:38:58;22.20;;;18.63;;
37284;SDS011;23172;53.550;9.964;2022-11-15T05:44:01;23.77;;;18.90;;
37284;SDS011;23172;53.550;9.964;2022-11-15T05:49:08;20.67;;;18.47;;
37284;SDS011;23172;53.550;9.964;2022-11-15T05:54:13;20.17;;;17.98;;
37284;SDS011;23172;53.550;9.964;2022-11-15T05:59:16;19.63;;;17.35;;
37284;SDS011;23172;53.550;9.964;2022-11-15T06:04:20;19.42;;;17.33;;
37284;SDS011;23172;53.550;9.964;2022-11-15T06:09:22;18.63;;;16.63;;
37284;SDS011;23172;53.550;9.964;2022-11-15T06:14:24;18.48;;;16.67;;
37284;SDS011;23172;53.550;9.964;2022-11-15T06:19:27;19.60;;;17.27;;
37284;SDS011;23172;53.550;9.964;2022-11-15T06:24:32;19.42;;;17.42;;
37284;SDS011;23172;53.550;9.964;2022-11-15T06:29:34;18.65;;;16.67;;
37284;SDS011;23172;53.550;9.964;2022-11-15T06:34:37;19.83;;;17.83;;
37284;SDS011;23172;53.550;9.964;2022-11-15T06:39:39;19.90;;;17.83;;
37284;SDS011;23172;53.550;9.964;2022-11-15T06:44:41;18.90;;;16.95;;
37284;SDS011;23172;53.550;9.964;2022-11-15T06:49:44;19.80;;;17.73;;
37284;SDS011;23172;53.550;9.964;2022-11-15T06:54:46;19.30;;;17.30;;
37284;SDS011;23172;53.550;9.964;2022-11-15T06:59:48;19.90;;;17.83;;
37284;SDS011;23172;53.550;9.964;2022-11-15T07:04:51;20.35;;;18.35;;
37284;SDS011;23172;53.550;9.964;2022-11-15T07:09:53;19.02;;;17.02;;
37284;SDS011;23172;53.550;9.964;2022-11-15T07:14:55;20.70;;;18.50;;
37284;SDS011;23172;53.550;9.964;2022-11-15T07:19:58;19.10;;;17.20;;
37284;SDS011;23172;53.550;9.964;2022-11-15T07:25:00;17.95;;;16.15;;
37284;SDS011;23172;53.550;9.964;2022-11-15T07:30:02;18.17;;;16.30;;
37284;SDS011;23172;53.550;9.964;2022-11-15T07:35:07;18.23;;;16.42;;
37284;SDS011;23172;53.550;9.964;2022-11-15T07:40:09;18.40;;;16.40;;
37284;SDS011;23172;53.550;9.964;2022-11-15T07:45:11;17.55;;;15.63;;
37284;SDS011;23172;53.550;9.964;2022-11-15T07:50:15;18.53;;;16.60;;
37284;SDS011;23172;53.550;9.964;2022-11-15T07:55:17;19.02;;;17.02;;
37284;SDS011;23172;53.550;9.964;2022-11-15T08:00:19;17.63;;;15.82;;
37284;SDS011;23172;53.550;9.964;2022-11-15T08:05:22;21.53;;;19.27;;
37284;SDS011;23172;53.550;9.964;2022-11-15T08:10:24;20.55;;;16.90;;
37284;SDS011;23172;53.550;9.964;2022-11-15T08:15:27;20.33;;;18.17;;
37284;SDS011;23172;53.550;9.964;2022-11-15T08:20:31;19.83;;;17.80;;
37284;SDS011;23172;53.550;9.964;2022-11-15T08:25:34;20.13;;;16.57;;
37284;SDS011;23172;53.550;9.964;2022-11-15T08:30:36;16.30;;;14.70;;
37284;SDS011;23172;53.550;9.964;2022-11-15T08:35:43;16.60;;;14.90;;
37284;SDS011;23172;53.550;9.964;2022-11-15T08:40:45;18.38;;;16.40;;
37284;SDS011;23172;53.550;9.964;2022-11-15T08:45:47;17.67;;;15.93;;
37284;SDS011;23172;53.550;9.964;2022-11-15T08:50:51;19.93;;;17.93;;
37284;SDS011;23172;53.550;9.964;2022-11-15T08:55:55;17.40;;;15.70;;
37284;SDS011;23172;53.550;9.964;2022-11-15T09:00:57;18.60;;;16.63;;
37284;SDS011;23172;53.550;9.964;2022-11-15T09:06:00;18.03;;;16.13;;
37284;SDS011;23172;53.550;9.964;2022-11-15T09:11:03;19.63;;;17.50;;
37284;SDS011;23172;53.550;9.964;2022-11-15T09:16:06;19.17;;;17.17;;
37284;SDS011;23172;53.550;9.964;2022-11-15T09:21:09;17.07;;;15.33;;
37284;SDS011;23172;53.550;9.964;2022-11-15T09:26:11;17.30;;;15.50;;
37284;SDS011;23172;53.550;9.964;2022-11-15T09:31:13;17.17;;;15.38;;
37284;SDS011;23172;53.550;9.964;2022-11-15T09:36:16;17.30;;;15.50;;
37284;SDS011;23172;53.550;9.964;2022-11-15T09:41:22;18.35;;;16.25;;
37284;SDS011;23172;53.550;9.964;2022-11-15T09:46:37;18.23;;;16.27;;
37284;SDS011;23172;53.550;9.964;2022-11-15T09:51:47;17.73;;;15.93;;
37284;SDS011;23172;53.550;9.964;2022-11-15T09:56:51;17.20;;;15.40;;
37284;SDS011;23172;53.550;9.964;2022-11-15T10:01:56;17.73;;;15.93;;
37284;SDS011;23172;53.550;9.964;2022-11-15T10:07:06;17.88;;;15.95;;
37284;SDS011;23172;53.550;9.964;2022-11-15T10:12:15;18.95;;;16.33;;
37284;SDS011;23172;53.550;9.964;2022-11-15T10:17:21;17.13;;;15.33;;
37284;SDS011;23172;53.550;9.964;2022-11-15T10:22:38;17.70;;;15.30;;
37284;SDS011;23172;53.550;9.964;2022-11-15T10:27:42;18.63;;;16.60;;
37284;SDS011;23172;53.550;9.964;2022-11-15T10:32:47;16.20;;;14.50;;
37284;SDS011;23172;53.550;9.964;2022-11-15T10:37:51;16.45;;;14.25;;
37284;SDS011;23172;53.550;9.964;2022-11-15T10:43:10;15.95;;;14.40;;
37284;SDS011;23172;53.550;9.964;2022-11-15T10:48:20;17.10;;;15.30;;
37284;SDS011;23172;53.550;9.964;2022-11-15T10:53:26;18.05;;;16.25;;
37284;SDS011;23172;53.550;9.964;2022-11-15T10:58:37;15.85;;;14.25;;
37284;SDS011;23172;53.550;9.964;2022-11-15T11:03:40;16.40;;;14.50;;
37284;SDS011;23172;53.550;9.964;2022-11-15T11:08:55;15.57;;;13.97;;
37284;SDS011;23172;53.550;9.964;2022-11-15T11:14:01;17.47;;;15.27;;
37284;SDS011;23172;53.550;9.964;2022-11-15T11:19:17;18.83;;;15.55;;
37284;SDS011;23172;53.550;9.964;2022-11-15T11:24:38;18.43;;;14.77;;
37284;SDS011;23172;53.550;9.964;2022-11-15T11:29:49;14.95;;;13.45;;
37284;SDS011;23172;53.550;9.964;2022-11-15T11:35:02;14.95;;;13.48;;
37284;SDS011;23172;53.550;9.964;2022-11-15T11:40:16;15.77;;;13.90;;
37284;SDS011;23172;53.550;9.964;2022-11-15T11:45:41;13.43;;;12.07;;
37284;SDS011;23172;53.550;9.964;2022-11-15T11:50:50;15.43;;;13.75;;
37284;SDS011;23172;53.550;9.964;2022-11-15T11:55:56;13.85;;;12.55;;
37284;SDS011;23172;53.550;9.964;2022-11-15T12:01:04;15.27;;;13.70;;
37284;SDS011;23172;53.550;9.964;2022-11-15T12:06:20;13.13;;;11.90;;
37284;SDS011;23172;53.550;9.964;2022-11-15T12:11:28;13.25;;;11.95;;
37284;SDS011;23172;53.550;9.964;2022-11-15T12:16:35;14.00;;;12.60;;
37284;SDS011;23172;53.550;9.964;2022-11-15T12:21:42;14.00;;;12.60;;
37284;SDS011;23172;53.550;9.964;2022-11-15T12:26:49;15.27;;;13.68;;
37284;SDS011;23172;53.550;9.964;2022-11-15T12:31:54;9.57;;;8.07;;
